Kill Devil Hills, NC (27948)

6:21 PM EDT on August 03, 2015 (GMT -0400)
First Flight | | Change Station
CLOSE
Current Station
Airport
Location: Kill Devil Hills,
Elevation: 13 ft
Nearby Weather Stations

Elev 13 ft 36.02 °N, 75.67 °W | Updated 6 minutes ago

Scattered Clouds
Scattered Clouds
81 °F
Feels Like 84 °F
N
8
Wind Variable Wind from SW
Gusts 20 mph

Today
High -- | Low -- °F
--% Chance of Precip.
Yesterday
High -- | Low -- °F
Precip. -- in
6:11 AM 8:05 PM
Waning Gibbous, 83% visible
Pressure 29.91 in
Visibility 10.0 miles
Clouds Scattered Clouds 2000 ft
Heat Index 84 °F
Dew Point 71 °F
Humidity 73%
Rainfall 0.00 in
Snow Depth Not available.
UV 1 out of 12
Pollen 5.40 out of 12
Air Quality Not available.
Flu Activity Not available.
METAR KFFA 032215Z AUTO 22007G17KT 180V240 10SM SCT020 27/22 A2991 RMK AO2 T02700217

More Conditions Fewer Conditions

Pressure 29.91 in
Visibility 10.0 miles
Clouds Scattered Clouds 2000 ft
Heat Index 84 °F
Dew Point 71 °F
Humidity 73%
Rainfall 0.00 in
Snow Depth Not available.
UV 1 out of 12
Pollen 5.40 out of 12
Air Quality Not available.
Flu Activity Not available.
METAR KFFA 032215Z AUTO 22007G17KT 180V240 10SM SCT020 27/22 A2991 RMK AO2 T02700217

More Conditions Fewer Conditions

10-Day Weather Forecast

×

Almanac

Astronomy

Aug. 03, 2015 Rise Set
Actual Time
Civil Twilight
Nautical Twilight
Astronomical Twilight
Moon
Length of Visible Light
Length of Day
Tomorrow will be .
, % of the Moon is Illuminated

Today's Extremes

State Highs State Lows

Community

WunderPhotos

Upload Photos

1,843,785 photos uploaded!

WunderBlogs® & News

Nearby

Air Quality

  Air Quality AQ Index Pollutant
Not available.

Snow Depth

Station Depth Elevation

Earthquake Activity

City Distance Mag. Time & Date
Minimum magnitude displayed is 2.5.

Coastal Water Temperatures

Place Temperature

Stations

Nearby Weather Stations

Station Location Temp. Windchill Dew Point Humidity Wind Precip. Elev Updated Type